Time;durP1;ratioP1;P1;durP2;ratioP2;P2;SDS_P1;SDS_P2;PMS_P1;PMS_P2;Temp;Humidity;BMP_temperature;BMP_pressure;BME280_temperature;BME280_humidity;BME280_pressure;Samples;Min_cycle;Max_cycle;Signal;HPM_P1;HPM_P2
2020/12/17 00:01:11;;;;;;;14.83;12.40;;;;;;;4.86;100.00;96434.44;5038293;28;20751;-89
2020/12/17 00:03:38;;;;;;;16.90;13.00;;;;;;;4.96;100.00;96421.47;5036715;28;20402;-90
2020/12/17 00:06:04;;;;;;;16.37;11.33;;;;;;;4.80;100.00;96423.06;5036728;28;20434;-90
2020/12/17 00:08:30;;;;;;;16.87;12.20;;;;;;;4.73;100.00;96429.69;5035491;28;20502;-89
2020/12/17 00:10:58;;;;;;;17.10;13.40;;;;;;;4.73;100.00;96424.34;5035318;28;20470;-88
2020/12/17 00:13:24;;;;;;;14.90;12.40;;;;;;;4.79;100.00;96426.97;5035936;28;20815;-89
2020/12/17 00:15:50;;;;;;;15.40;11.90;;;;;;;4.74;100.00;96417.78;5035608;28;20495;-89
2020/12/17 00:18:17;;;;;;;14.23;11.47;;;;;;;4.79;100.00;96427.69;5035012;28;20402;-89
2020/12/17 00:20:43;;;;;;;17.23;11.57;;;;;;;4.82;100.00;96417.97;5034635;28;20950;-88
2020/12/17 00:23:09;;;;;;;16.10;12.70;;;;;;;4.81;100.00;96405.81;5035052;28;20414;-90
2020/12/17 00:25:36;;;;;;;16.67;12.53;;;;;;;4.84;100.00;96410.91;5038440;28;20413;-90
2020/12/17 00:28:03;;;;;;;18.00;13.77;;;;;;;4.85;100.00;96415.00;5039954;28;20444;-90
2020/12/17 00:30:30;;;;;;;14.60;11.80;;;;;;;4.92;100.00;96413.72;5039592;28;20467;-90
2020/12/17 00:32:56;;;;;;;16.07;12.17;;;;;;;4.93;100.00;96414.44;5039874;28;20910;-90
2020/12/17 00:35:23;;;;;;;17.77;12.93;;;;;;;4.88;100.00;96413.28;5057869;28;20460;-87
2020/12/17 00:37:49;;;;;;;15.97;12.40;;;;;;;4.73;100.00;96404.94;5062573;28;20473;-87
2020/12/17 00:40:16;;;;;;;16.57;12.37;;;;;;;4.70;100.00;96403.97;5062357;28;20409;-88
2020/12/17 00:42:43;;;;;;;18.43;13.33;;;;;;;4.76;100.00;96409.97;5062418;28;20419;-88
2020/12/17 00:45:11;;;;;;;14.80;12.33;;;;;;;4.76;100.00;96401.25;5039513;28;20414;-89
2020/12/17 00:47:38;;;;;;;17.17;12.50;;;;;;;4.92;100.00;96408.38;5039069;28;20451;-89
2020/12/17 00:50:05;;;;;;;17.50;12.70;;;;;;;4.88;100.00;96407.22;5040274;28;20566;-89
2020/12/17 00:52:34;;;;;;;19.17;13.00;;;;;;;4.69;100.00;96413.22;5040412;28;20428;-90
2020/12/17 00:55:01;;;;;;;18.83;13.77;;;;;;;4.63;100.00;96406.47;5039864;28;20544;-88
2020/12/17 00:57:27;;;;;;;16.60;12.30;;;;;;;4.54;100.00;96407.50;5038625;28;20458;-88
2020/12/17 00:59:54;;;;;;;15.73;12.50;;;;;;;4.49;100.00;96407.53;5039484;28;20438;-87
2020/12/17 01:02:21;;;;;;;18.80;14.27;;;;;;;4.48;100.00;96419.47;5040013;28;20435;-88
2020/12/17 01:04:48;;;;;;;18.87;14.20;;;;;;;4.48;100.00;96417.50;5040343;28;20534;-89
2020/12/17 01:07:14;;;;;;;21.33;14.03;;;;;;;4.58;100.00;96418.63;5044903;28;20418;-87
2020/12/17 01:09:41;;;;;;;25.40;15.10;;;;;;;4.48;100.00;96416.78;5055350;28;20429;-90
2020/12/17 01:12:08;;;;;;;17.80;12.30;;;;;;;4.51;100.00;96415.81;5054799;28;20421;-89
2020/12/17 01:14:35;;;;;;;22.37;14.17;;;;;;;4.45;100.00;96421.16;5047850;28;20780;-90
2020/12/17 01:17:03;;;;;;;18.90;13.70;;;;;;;4.45;100.00;96421.16;5044781;28;20565;-88
2020/12/17 01:19:30;;;;;;;22.17;14.93;;;;;;;4.38;100.00;96421.00;5046782;28;20466;-89
2020/12/17 01:21:57;;;;;;;21.43;14.43;;;;;;;4.35;100.00;96422.72;5044476;28;20394;-87
2020/12/17 01:24:23;;;;;;;25.17;17.33;;;;;;;4.36;100.00;96424.16;5059489;28;20412;-87
2020/12/17 01:26:52;;;;;;;19.53;14.50;;;;;;;4.33;100.00;96420.53;5045860;28;20422;-89
2020/12/17 01:29:18;;;;;;;23.70;16.53;;;;;;;4.28;100.00;96418.63;5038397;28;20592;-90
2020/12/17 01:31:45;;;;;;;24.37;14.73;;;;;;;4.28;100.00;96423.25;5053972;28;20411;-89
2020/12/17 01:34:11;;;;;;;22.50;14.80;;;;;;;4.26;100.00;96415.72;5061127;28;20502;-88
2020/12/17 01:36:39;;;;;;;24.60;15.50;;;;;;;4.17;100.00;96418.69;5060448;28;20462;-88
2020/12/17 01:39:05;;;;;;;20.03;15.77;;;;;;;4.14;100.00;96410.94;5046341;28;20602;-88
2020/12/17 01:41:31;;;;;;;21.60;15.67;;;;;;;4.18;100.00;96422.09;5038321;28;20923;-90
2020/12/17 01:44:01;;;;;;;27.00;14.83;;;;;;;4.13;100.00;96426.25;5037811;28;20543;-90
2020/12/17 01:46:27;;;;;;;20.97;15.17;;;;;;;4.10;100.00;96424.56;5039532;28;20508;-90
2020/12/17 01:48:54;;;;;;;19.97;14.07;;;;;;;4.03;100.00;96422.44;5038758;28;20499;-90
2020/12/17 01:51:21;;;;;;;25.13;15.07;;;;;;;3.94;100.00;96422.72;5039063;28;20447;-90
2020/12/17 01:53:48;;;;;;;21.57;15.13;;;;;;;3.91;100.00;96429.06;5038009;28;20451;-90
2020/12/17 01:56:22;;;;;;;39.07;15.57;;;;;;;3.85;100.00;96433.69;5038704;28;20525;-90
2020/12/17 01:58:54;;;;;;;34.80;16.13;;;;;;;3.78;100.00;96436.88;5038278;28;20437;-89
2020/12/17 02:01:24;;;;;;;24.60;14.77;;;;;;;3.77;100.00;96438.81;5041703;28;20416;-90
2020/12/17 02:03:50;;;;;;;24.50;17.30;;;;;;;3.80;100.00;96434.44;5040321;28;20401;-90
2020/12/17 02:06:17;;;;;;;23.30;15.10;;;;;;;3.84;100.00;96439.50;5043030;28;20505;-90
2020/12/17 02:08:44;;;;;;;18.03;13.97;;;;;;;3.80;100.00;96442.44;5060723;28;20409;-88
2020/12/17 02:11:11;;;;;;;22.33;14.17;;;;;;;3.83;100.00;96438.06;5045167;28;20852;-88
2020/12/17 02:13:38;;;;;;;21.10;14.53;;;;;;;3.83;100.00;96441.44;5037298;28;20467;-89
2020/12/17 02:16:06;;;;;;;20.67;14.80;;;;;;;3.84;100.00;96432.22;5037724;28;20435;-90
2020/12/17 02:18:33;;;;;;;16.53;13.50;;;;;;;3.82;100.00;96444.63;5037445;28;20422;-89
2020/12/17 02:20:59;;;;;;;21.80;13.27;;;;;;;3.82;100.00;96447.28;5037289;28;20971;-89
2020/12/17 02:23:26;;;;;;;23.23;14.20;;;;;;;3.84;100.00;96450.19;5036783;28;20458;-89
2020/12/17 02:25:54;;;;;;;17.73;12.90;;;;;;;3.79;100.00;96451.66;5036614;28;20455;-89
2020/12/17 02:28:22;;;;;;;14.60;11.67;;;;;;;3.82;100.00;96453.34;5036299;28;20436;-89
2020/12/17 02:30:49;;;;;;;15.73;11.37;;;;;;;3.82;100.00;96455.31;5036394;28;20955;-88
2020/12/17 02:33:16;;;;;;;20.40;13.93;;;;;;;3.83;100.00;96462.06;5037140;28;20451;-86
2020/12/17 02:35:43;;;;;;;17.90;11.80;;;;;;;3.85;100.00;96457.72;5036347;28;20605;-86
2020/12/17 02:38:10;;;;;;;17.17;11.80;;;;;;;3.88;100.00;96456.00;5036500;28;20458;-86
2020/12/17 02:40:37;;;;;;;22.10;12.90;;;;;;;3.88;100.00;96453.31;5036293;28;20486;-86
2020/12/17 02:43:05;;;;;;;18.03;13.20;;;;;;;3.88;100.00;96458.66;5036445;28;20443;-86
2020/12/17 02:45:31;;;;;;;15.60;11.53;;;;;;;3.92;100.00;96457.19;5035825;28;20410;-87
2020/12/17 02:47:58;;;;;;;17.50;11.90;;;;;;;3.94;100.00;96443.34;5035125;28;20414;-87
2020/12/17 02:50:24;;;;;;;16.03;11.80;;;;;;;3.95;100.00;96444.78;5036193;28;20505;-87
2020/12/17 02:52:51;;;;;;;19.87;12.80;;;;;;;3.92;100.00;96449.16;5036320;28;20437;-87
2020/12/17 02:55:17;;;;;;;17.80;13.13;;;;;;;3.95;100.00;96453.50;5036118;28;20467;-87
2020/12/17 02:57:43;;;;;;;14.90;11.23;;;;;;;3.95;100.00;96455.47;5036060;28;20509;-87
2020/12/17 03:00:11;;;;;;;23.13;13.17;;;;;;;3.96;100.00;96454.97;5036012;28;20474;-87
2020/12/17 03:02:38;;;;;;;19.10;13.43;;;;;;;3.96;100.00;96454.25;5036486;28;20483;-87
2020/12/17 03:05:05;;;;;;;17.40;13.30;;;;;;;3.95;100.00;96455.47;5035770;28;20772;-87
2020/12/17 03:07:32;;;;;;;17.20;11.63;;;;;;;3.84;100.00;96460.84;5036072;28;21000;-87
2020/12/17 03:09:58;;;;;;;18.23;12.57;;;;;;;3.86;100.00;96458.41;5036318;28;20489;-87
2020/12/17 03:12:24;;;;;;;16.00;11.73;;;;;;;3.82;100.00;96456.03;5035838;28;20450;-88
2020/12/17 03:14:51;;;;;;;15.50;11.10;;;;;;;3.78;100.00;96455.56;5040610;28;20487;-86
2020/12/17 03:17:18;;;;;;;15.30;11.70;;;;;;;3.77;100.00;96454.09;5041350;28;20479;-87
2020/12/17 03:19:44;;;;;;;12.40;10.13;;;;;;;3.78;100.00;96458.94;5037775;28;20467;-87
2020/12/17 03:22:11;;;;;;;14.53;10.93;;;;;;;3.71;100.00;96456.78;5035651;28;20433;-88
2020/12/17 03:24:37;;;;;;;18.50;11.37;;;;;;;3.75;100.00;96464.53;5035336;28;20572;-87
2020/12/17 03:27:04;;;;;;;14.73;11.43;;;;;;;3.78;100.00;96463.56;5035592;28;20406;-88
2020/12/17 03:29:30;;;;;;;15.97;10.90;;;;;;;3.76;100.00;96472.03;5035420;28;20474;-88
2020/12/17 03:31:57;;;;;;;15.50;11.80;;;;;;;3.71;100.00;96469.41;5047763;28;20433;-85
2020/12/17 03:34:24;;;;;;;13.67;10.50;;;;;;;3.69;100.00;96464.56;5059009;28;20489;-88
2020/12/17 03:36:50;;;;;;;15.87;10.07;;;;;;;3.71;100.00;96470.13;5059151;28;20398;-88
2020/12/17 03:39:17;;;;;;;11.97;10.10;;;;;;;3.72;100.00;96468.91;5059101;28;20503;-88
2020/12/17 03:41:43;;;;;;;12.00;10.30;;;;;;;3.67;100.00;96468.91;5042671;28;20836;-86
2020/12/17 03:44:09;;;;;;;15.00;10.70;;;;;;;3.69;100.00;96471.84;5035530;28;20437;-87
2020/12/17 03:46:36;;;;;;;12.30;9.87;;;;;;;3.71;100.00;96469.41;5035560;28;20416;-87
2020/12/17 03:49:03;;;;;;;14.30;10.60;;;;;;;3.73;100.00;96464.28;5035344;28;20471;-87
2020/12/17 03:51:30;;;;;;;13.33;10.07;;;;;;;3.75;100.00;96470.59;5036178;28;20439;-86
2020/12/17 03:53:56;;;;;;;14.70;10.10;;;;;;;3.84;100.00;96471.53;5035232;28;20459;-86
2020/12/17 03:56:23;;;;;;;14.00;11.03;;;;;;;3.82;100.00;96474.72;5035571;28;20455;-86
2020/12/17 03:58:49;;;;;;;13.03;10.23;;;;;;;3.81;100.00;96473.25;5034946;28;20445;-87
2020/12/17 04:01:16;;;;;;;13.67;11.37;;;;;;;3.80;100.00;96463.78;5035132;28;20451;-87
2020/12/17 04:03:42;;;;;;;15.33;10.90;;;;;;;3.76;100.00;96468.66;5034786;28;20447;-87
2020/12/17 04:06:08;;;;;;;15.37;10.40;;;;;;;3.68;100.00;96470.38;5035230;28;20465;-87
2020/12/17 04:08:36;;;;;;;16.17;12.00;;;;;;;3.73;100.00;96466.97;5035082;28;20435;-87
2020/12/17 04:11:02;;;;;;;14.37;10.73;;;;;;;3.66;100.00;96468.22;5035247;28;20836;-87
2020/12/17 04:13:30;;;;;;;16.80;10.93;;;;;;;3.61;100.00;96470.88;5035196;28;20451;-87
2020/12/17 04:15:58;;;;;;;12.90;10.20;;;;;;;3.57;100.00;96473.81;5035249;28;20487;-86
2020/12/17 04:18:25;;;;;;;14.27;10.40;;;;;;;3.54;100.00;96479.41;5035308;28;20444;-87
2020/12/17 04:20:51;;;;;;;15.63;10.60;;;;;;;3.50;100.00;96477.00;5035112;28;20553;-89
2020/12/17 04:23:17;;;;;;;11.70;9.07;;;;;;;3.50;100.00;96476.28;5034996;28;20442;-88
2020/12/17 04:25:45;;;;;;;13.30;10.53;;;;;;;3.56;100.00;96475.03;5035335;28;20455;-88
2020/12/17 04:28:11;;;;;;;11.30;8.70;;;;;;;3.58;100.00;96479.88;5034711;28;20439;-88
2020/12/17 04:30:37;;;;;;;11.67;9.80;;;;;;;3.50;100.00;96484.28;5034101;28;20858;-89
2020/12/17 04:33:04;;;;;;;13.70;11.27;;;;;;;3.41;100.00;96479.19;5034093;28;20451;-88
2020/12/17 04:35:30;;;;;;;13.93;10.70;;;;;;;3.41;100.00;96484.53;5034316;28;21003;-88
2020/12/17 04:37:57;;;;;;;13.53;10.37;;;;;;;3.35;100.00;96475.81;5034857;28;20451;-88
2020/12/17 04:40:24;;;;;;;14.93;10.50;;;;;;;3.40;100.00;96477.75;5034549;28;20455;-88
2020/12/17 04:42:51;;;;;;;16.93;12.63;;;;;;;3.38;100.00;96480.91;5034557;28;20545;-88
2020/12/17 04:45:19;;;;;;;17.70;12.27;;;;;;;3.37;100.00;96476.06;5035179;28;20447;-88
2020/12/17 04:47:46;;;;;;;17.83;11.60;;;;;;;3.46;100.00;96481.84;5035193;28;20452;-88
2020/12/17 04:50:15;;;;;;;15.67;10.50;;;;;;;3.52;100.00;96473.81;5035119;28;20463;-88
2020/12/17 04:52:43;;;;;;;16.20;11.33;;;;;;;3.53;100.00;96476.03;5034653;28;20463;-88
2020/12/17 04:55:11;;;;;;;16.13;10.50;;;;;;;3.42;100.00;96472.63;5035062;28;20495;-87
2020/12/17 04:57:46;;;;;;;16.70;10.67;;;;;;;3.38;100.00;96464.91;5034577;28;20451;-88
2020/12/17 05:00:14;;;;;;;14.67;11.00;;;;;;;3.38;100.00;96466.84;5034577;28;20497;-89
2020/12/17 05:02:45;;;;;;;12.80;11.00;;;;;;;3.34;100.00;96466.38;5035226;28;20413;-87
2020/12/17 05:05:12;;;;;;;12.87;10.50;;;;;;;3.34;100.00;96469.75;5034622;28;20777;-87
2020/12/17 05:07:40;;;;;;;14.70;10.77;;;;;;;3.36;100.00;96469.25;5035354;28;20451;-87
2020/12/17 05:10:06;;;;;;;16.97;11.43;;;;;;;3.38;100.00;96466.84;5034405;28;20501;-87
2020/12/17 05:12:32;;;;;;;16.13;11.43;;;;;;;3.38;100.00;96474.84;5037753;28;20443;-87
2020/12/17 05:14:59;;;;;;;14.20;10.87;;;;;;;3.40;100.00;96477.75;5039007;28;20493;-87
2020/12/17 05:17:26;;;;;;;15.40;11.23;;;;;;;3.36;100.00;96474.59;5038821;28;20939;-87
2020/12/17 05:19:53;;;;;;;13.83;10.83;;;;;;;3.26;100.00;96486.75;5039193;28;20545;-87
2020/12/17 05:22:19;;;;;;;12.77;10.60;;;;;;;3.13;100.00;96482.63;5044300;28;20435;-86
2020/12/17 05:24:47;;;;;;;14.17;10.63;;;;;;;3.07;100.00;96500.56;5046371;28;20453;-86
2020/12/17 05:27:13;;;;;;;11.23;9.17;;;;;;;3.07;100.00;96507.88;5042553;28;20451;-87
2020/12/17 05:29:41;;;;;;;16.67;11.17;;;;;;;3.07;100.00;96505.91;5038785;28;20823;-87
2020/12/17 05:32:07;;;;;;;15.20;10.33;;;;;;;3.07;100.00;96508.56;5038444;28;20440;-88
2020/12/17 05:34:36;;;;;;;14.47;10.40;;;;;;;3.04;100.00;96512.19;5038453;28;20483;-88
2020/12/17 05:37:05;;;;;;;14.23;10.20;;;;;;;3.04;100.00;96514.88;5039033;28;20442;-88
2020/12/17 05:39:32;;;;;;;12.50;9.60;;;;;;;3.01;100.00;96518.50;5038956;28;20520;-88
2020/12/17 05:41:58;;;;;;;15.13;11.10;;;;;;;2.89;100.00;96519.72;5037914;28;20451;-87
2020/12/17 05:44:27;;;;;;;12.97;11.13;;;;;;;2.80;100.00;96522.63;5038055;28;20952;-88
2020/12/17 05:46:54;;;;;;;16.80;10.40;;;;;;;2.85;100.00;96529.19;5037646;28;20436;-88
2020/12/17 05:49:22;;;;;;;16.20;11.10;;;;;;;2.80;100.00;96533.28;5038043;28;20831;-88
2020/12/17 05:51:51;;;;;;;13.33;9.20;;;;;;;2.86;100.00;96519.97;5038169;28;20435;-87
2020/12/17 05:54:23;;;;;;;14.23;10.33;;;;;;;2.84;100.00;96533.78;5038637;28;20447;-87
2020/12/17 05:57:04;;;;;;;14.87;10.50;;;;;;;2.96;100.00;96531.84;5037989;28;20455;-87
2020/12/17 05:59:30;;;;;;;15.67;11.20;;;;;;;2.99;100.00;96528.19;5037848;28;20483;-86
2020/12/17 06:01:56;;;;;;;16.00;11.17;;;;;;;2.97;100.00;96534.03;5038265;28;20410;-86
2020/12/17 06:04:23;;;;;;;14.10;10.20;;;;;;;3.03;100.00;96537.41;5037933;28;20545;-86
2020/12/17 06:06:50;;;;;;;16.63;10.97;;;;;;;3.00;100.00;96532.31;5038128;28;20845;-87
2020/12/17 06:09:21;;;;;;;15.23;11.90;;;;;;;3.02;100.00;96521.91;5038348;28;20983;-86
2020/12/17 06:11:49;;;;;;;17.73;11.70;;;;;;;3.00;100.00;96535.72;5043846;28;20486;-87
2020/12/17 06:14:20;;;;;;;13.87;9.83;;;;;;;3.02;100.00;96541.28;5056678;28;20421;-89
2020/12/17 06:16:53;;;;;;;13.93;10.23;;;;;;;3.05;100.00;96547.59;5051426;28;20395;-89
2020/12/17 06:19:22;;;;;;;14.83;10.63;;;;;;;3.01;100.00;96555.09;5039140;28;20507;-88
2020/12/17 06:21:48;;;;;;;17.17;9.97;;;;;;;2.95;100.00;96555.09;5039434;28;20426;-88
2020/12/17 06:24:17;;;;;;;17.07;11.60;;;;;;;2.96;100.00;96553.16;5038432;28;20457;-88
2020/12/17 06:26:51;;;;;;;15.67;10.80;;;;;;;3.00;100.00;96559.72;5038594;28;20418;-86
2020/12/17 06:29:19;;;;;;;18.23;12.87;;;;;;;2.97;100.00;96554.63;5038991;28;20470;-87
2020/12/17 06:31:56;;;;;;;15.90;11.50;;;;;;;2.93;100.00;96557.53;5038590;28;20406;-86
2020/12/17 06:34:23;;;;;;;15.23;11.70;;;;;;;2.98;100.00;96567.44;5038573;28;20477;-88
2020/12/17 06:36:57;;;;;;;19.43;12.00;;;;;;;3.00;100.00;96567.72;5038724;28;20950;-88
2020/12/17 06:39:24;;;;;;;16.20;11.70;;;;;;;3.03;100.00;96576.66;5038759;28;20441;-86
2020/12/17 06:41:51;;;;;;;17.83;12.43;;;;;;;3.15;100.00;96570.84;5046740;28;20433;-88
2020/12/17 06:44:31;;;;;;;18.93;12.03;;;;;;;3.14;100.00;96577.38;5059735;28;20412;-89
2020/12/17 06:46:59;;;;;;;16.97;11.80;;;;;;;3.20;100.00;96572.06;5059444;28;20413;-87
2020/12/17 06:49:27;;;;;;;18.30;11.50;;;;;;;3.20;100.00;96572.78;5059156;28;20459;-88
2020/12/17 06:52:07;;;;;;;19.60;12.43;;;;;;;3.31;100.00;96579.31;5045252;28;20459;-86
2020/12/17 06:54:37;;;;;;;15.87;12.23;;;;;;;3.36;100.00;96575.91;5037247;28;20467;-87
2020/12/17 06:57:05;;;;;;;17.60;11.60;;;;;;;3.41;100.00;96591.22;5036779;28;20422;-86
2020/12/17 06:59:32;;;;;;;16.17;10.67;;;;;;;3.48;100.00;96582.69;5036586;28;20547;-86
2020/12/17 07:01:59;;;;;;;13.80;10.47;;;;;;;3.53;100.00;96593.38;5036926;28;20487;-87
2020/12/17 07:04:40;;;;;;;14.53;10.53;;;;;;;3.54;100.00;96592.16;5037535;28;20458;-87
2020/12/17 07:07:12;;;;;;;15.90;11.83;;;;;;;3.57;100.00;96601.84;5039161;28;20435;-88
2020/12/17 07:09:39;;;;;;;17.27;10.53;;;;;;;3.65;100.00;96599.41;5037063;28;20978;-88
2020/12/17 07:12:06;;;;;;;18.83;12.40;;;;;;;3.60;100.00;96611.53;5036703;28;20504;-87
2020/12/17 07:14:35;;;;;;;17.93;11.87;;;;;;;3.67;100.00;96607.66;5038801;28;20483;-87
2020/12/17 07:17:04;;;;;;;19.23;12.07;;;;;;;3.78;100.00;96618.31;5039487;28;20830;-86
2020/12/17 07:19:37;;;;;;;15.80;11.30;;;;;;;3.87;100.00;96622.66;5037089;28;20455;-86
2020/12/17 07:22:06;;;;;;;22.97;12.80;;;;;;;3.96;100.00;96627.75;5036367;28;20519;-86
2020/12/17 07:24:35;;;;;;;17.50;10.80;;;;;;;4.14;100.00;96627.94;5037651;28;20451;-88
2020/12/17 07:27:10;;;;;;;16.77;11.17;;;;;;;4.26;100.00;96628.66;5036198;28;20623;-87
2020/12/17 07:29:39;;;;;;;14.80;9.53;;;;;;;4.32;100.00;96632.03;5036986;28;20825;-88
2020/12/17 07:32:25;;;;;;;13.73;10.10;;;;;;;4.37;100.00;96633.22;5037079;28;20589;-88
2020/12/17 07:34:53;;;;;;;12.70;9.83;;;;;;;4.44;100.00;96643.38;5039125;28;20925;-88
2020/12/17 07:37:41;;;;;;;14.33;10.53;;;;;;;4.42;100.00;96641.19;5037674;28;20435;-89
2020/12/17 07:40:36;;;;;;;14.50;10.70;;;;;;;4.68;100.00;96646.94;5033009;28;21007;-88
2020/12/17 07:43:13;;;;;;;16.87;11.53;;;;;;;4.68;100.00;96654.94;5003248;28;20513;-88
2020/12/17 07:45:45;;;;;;;14.63;10.27;;;;;;;4.79;100.00;96654.88;5038210;28;20507;-88
2020/12/17 07:48:40;;;;;;;13.27;9.73;;;;;;;4.68;100.00;96654.94;5039739;28;20411;-88
2020/12/17 07:51:08;;;;;;;15.27;8.63;;;;;;;4.81;100.00;96662.41;5019684;28;20487;-88
2020/12/17 07:53:36;;;;;;;14.13;10.03;;;;;;;4.97;100.00;96671.56;5040185;28;20549;-89
2020/12/17 07:56:04;;;;;;;13.63;9.27;;;;;;;5.19;99.04;96674.84;5039528;28;20490;-89
2020/12/17 07:58:31;;;;;;;15.00;8.97;;;;;;;5.25;98.48;96683.56;5038872;28;20509;-87
2020/12/17 08:00:59;;;;;;;13.47;9.13;;;;;;;5.23;98.29;96688.66;5038506;28;20473;-87
2020/12/17 08:03:25;;;;;;;11.70;8.37;;;;;;;5.24;99.04;96700.81;5036586;28;20473;-87
2020/12/17 08:05:53;;;;;;;12.20;8.87;;;;;;;5.27;99.17;96689.13;5036094;28;20546;-89
2020/12/17 08:08:20;;;;;;;9.73;7.97;;;;;;;5.32;98.68;96696.41;5042222;28;20433;-89
2020/12/17 08:10:56;;;;;;;15.33;8.37;;;;;;;5.23;99.10;96686.00;5058471;28;20426;-88
2020/12/17 08:13:25;;;;;;;11.20;8.67;;;;;;;5.33;98.89;96686.41;5057958;28;20429;-86
2020/12/17 08:15:53;;;;;;;13.37;7.53;;;;;;;5.34;98.34;96693.22;5056576;28;20478;-88
2020/12/17 08:18:24;;;;;;;12.33;7.67;;;;;;;5.45;98.78;96692.44;5037293;28;20471;-87
2020/12/17 08:21:00;;;;;;;9.77;7.33;;;;;;;5.54;97.72;96695.53;5038002;28;20530;-89
2020/12/17 08:23:28;;;;;;;10.50;7.50;;;;;;;5.59;97.22;96692.09;5049803;28;20393;-88
2020/12/17 08:25:55;;;;;;;9.57;6.97;;;;;;;5.65;97.73;96702.75;5046057;28;20554;-88
2020/12/17 08:28:22;;;;;;;9.80;6.90;;;;;;;5.52;97.92;96702.59;5037644;28;20517;-86
2020/12/17 08:30:48;;;;;;;9.77;7.37;;;;;;;5.47;98.39;96693.38;5036454;28;20982;-86
2020/12/17 08:33:16;;;;;;;9.37;7.80;;;;;;;5.54;97.66;96700.16;5037083;28;20444;-87
2020/12/17 08:35:42;;;;;;;9.10;7.23;;;;;;;5.56;98.23;96705.72;5036411;28;20479;-87
2020/12/17 08:38:08;;;;;;;8.00;7.07;;;;;;;5.63;98.06;96705.19;5036352;28;20457;-85
2020/12/17 08:40:38;;;;;;;8.37;6.73;;;;;;;5.65;97.52;96705.41;5036970;28;20532;-87
2020/12/17 08:43:11;;;;;;;12.43;9.27;;;;;;;5.69;96.79;96692.50;5035863;28;20496;-86
2020/12/17 08:45:40;;;;;;;9.63;7.47;;;;;;;5.68;96.71;96689.09;5038282;28;20491;-87
2020/12/17 08:48:11;;;;;;;8.23;6.47;;;;;;;5.71;96.83;96695.41;5040411;28;20436;-87
2020/12/17 08:50:40;;;;;;;10.27;6.23;;;;;;;5.68;97.40;96699.81;5041473;28;20520;-87
2020/12/17 08:53:18;;;;;;;11.13;7.43;;;;;;;5.65;97.50;96705.41;5040362;28;20497;-88
2020/12/17 08:56:00;;;;;;;13.03;8.90;;;;;;;5.67;97.45;96713.69;5040158;28;20461;-87
2020/12/17 08:58:26;;;;;;;8.37;7.10;;;;;;;5.73;96.88;96715.06;5041064;28;20510;-88
2020/12/17 09:00:53;;;;;;;10.50;7.23;;;;;;;5.69;97.05;96714.66;5040723;28;20826;-88
2020/12/17 09:03:20;;;;;;;10.00;7.10;;;;;;;5.82;96.84;96716.75;5043935;28;20939;-88
2020/12/17 09:06:04;;;;;;;11.43;8.10;;;;;;;5.82;96.96;96716.75;5041771;28;20486;-89
2020/12/17 09:08:31;;;;;;;12.73;8.53;;;;;;;5.88;96.90;96731.56;5041236;28;20398;-87
2020/12/17 09:10:57;;;;;;;8.47;6.40;;;;;;;5.90;96.85;96725.69;5042113;28;20498;-87
2020/12/17 09:13:24;;;;;;;12.00;7.97;;;;;;;5.93;97.82;96730.06;5041325;28;20476;-87
2020/12/17 09:15:58;;;;;;;10.77;8.37;;;;;;;5.89;97.79;96735.69;5046030;28;20449;-88
2020/12/17 09:18:26;;;;;;;13.93;8.90;;;;;;;5.92;97.97;96740.03;5044157;28;20421;-88
2020/12/17 09:21:08;;;;;;;12.37;8.63;;;;;;;6.01;97.16;96741.69;5044000;28;20448;-88
2020/12/17 09:23:34;;;;;;;8.53;7.03;;;;;;;6.09;97.39;96742.59;5044121;28;20435;-87
2020/12/17 09:26:11;;;;;;;8.70;6.90;;;;;;;6.06;97.41;96756.97;5041041;28;20447;-86
2020/12/17 09:28:47;;;;;;;9.57;6.57;;;;;;;5.98;97.15;96753.41;5039134;28;20418;-87
2020/12/17 09:31:27;;;;;;;11.23;7.87;;;;;;;5.93;97.54;96754.88;5041503;28;20398;-88
2020/12/17 09:34:05;;;;;;;15.83;8.97;;;;;;;5.94;97.43;96747.59;5038630;28;20473;-87
2020/12/17 09:36:33;;;;;;;10.40;9.03;;;;;;;5.88;98.12;96744.94;5040811;28;20540;-88
2020/12/17 09:39:01;;;;;;;10.60;8.37;;;;;;;5.89;97.88;96743.72;5039549;28;20420;-87
2020/12/17 09:41:28;;;;;;;10.67;9.40;;;;;;;5.93;98.06;96746.13;5040413;28;20522;-86
2020/12/17 09:43:54;;;;;;;12.00;8.03;;;;;;;5.98;98.39;96758.03;5045800;28;20409;-86
2020/12/17 09:46:41;;;;;;;7.87;6.63;;;;;;;6.05;98.23;96754.78;5060372;28;20435;-88
2020/12/17 09:49:09;;;;;;;12.70;7.27;;;;;;;6.20;97.49;96757.84;5060554;28;20445;-87
2020/12/17 09:51:36;;;;;;;14.30;9.10;;;;;;;6.31;98.31;96763.81;5060643;28;20420;-87
2020/12/17 09:54:03;;;;;;;14.33;9.13;;;;;;;6.43;97.78;96762.50;5048143;28;20533;-88
2020/12/17 09:56:29;;;;;;;9.73;7.10;;;;;;;6.59;97.04;96771.59;5040638;28;21082;-87
2020/12/17 09:58:56;;;;;;;11.90;6.70;;;;;;;6.71;96.77;96764.88;5039958;28;21006;-88
2020/12/17 10:01:22;;;;;;;13.90;7.07;;;;;;;6.82;96.42;96774.78;5040751;28;20413;-87
2020/12/17 10:03:49;;;;;;;10.07;6.30;;;;;;;6.93;96.36;96772.69;5039599;28;20458;-85
2020/12/17 10:06:16;;;;;;;8.97;6.70;;;;;;;7.05;95.69;96770.59;5040482;28;20432;-86
2020/12/17 10:08:43;;;;;;;9.00;6.07;;;;;;;7.16;95.04;96769.75;5038933;28;20524;-87
2020/12/17 10:11:09;;;;;;;12.47;6.20;;;;;;;7.26;94.78;96773.53;5038451;28;20477;-86
2020/12/17 10:13:36;;;;;;;9.13;6.50;;;;;;;7.30;93.98;96777.38;5039069;28;20418;-89
2020/12/17 10:16:03;;;;;;;20.00;6.77;;;;;;;7.29;94.46;96775.19;5039098;28;20489;-87
2020/12/17 10:18:29;;;;;;;15.90;6.60;;;;;;;7.40;94.35;96780.41;5041088;28;20451;-88
2020/12/17 10:20:56;;;;;;;11.57;6.90;;;;;;;7.39;94.85;96777.00;5041612;28;20451;-87
2020/12/17 10:23:22;;;;;;;10.30;7.43;;;;;;;7.48;95.07;96784.00;5043838;28;20433;-88
2020/12/17 10:25:49;;;;;;;14.03;7.00;;;;;;;7.69;95.34;96784.19;5042940;28;20881;-88
2020/12/17 10:28:16;;;;;;;10.13;6.90;;;;;;;7.86;94.64;96779.31;5043089;28;20417;-87
2020/12/17 10:30:42;;;;;;;11.43;6.30;;;;;;;7.89;94.78;96781.69;5040136;28;20446;-88
2020/12/17 10:33:08;;;;;;;10.43;6.67;;;;;;;7.92;95.19;96786.06;5041293;28;20443;-90
2020/12/17 10:35:35;;;;;;;8.00;6.40;;;;;;;8.08;94.27;96787.75;5041237;28;20545;-88
2020/12/17 10:38:01;;;;;;;7.90;5.67;;;;;;;8.26;93.19;96786.25;5041591;28;20431;-88
2020/12/17 10:40:28;;;;;;;9.70;5.67;;;;;;;8.35;92.54;96777.81;5041433;28;20508;-88
2020/12/17 10:42:55;;;;;;;7.30;5.97;;;;;;;8.33;92.39;96776.88;5039794;28;20434;-88
2020/12/17 10:45:22;;;;;;;6.50;4.67;;;;;;;8.34;92.29;96779.03;5040426;28;20424;-88
2020/12/17 10:47:48;;;;;;;11.27;6.23;;;;;;;8.42;92.09;96776.47;5042584;28;20854;-89
2020/12/17 10:50:15;;;;;;;9.53;5.20;;;;;;;8.37;91.93;96780.72;5043232;28;20494;-89
2020/12/17 10:52:42;;;;;;;12.93;5.93;;;;;;;8.37;92.57;96779.97;5039350;28;20490;-88
2020/12/17 10:55:09;;;;;;;6.93;4.93;;;;;;;8.35;93.27;96787.84;5040622;28;20457;-89
2020/12/17 10:57:35;;;;;;;10.27;5.83;;;;;;;8.46;92.83;96788.38;5039563;28;20455;-87
2020/12/17 11:00:04;;;;;;;8.20;5.50;;;;;;;8.48;92.94;96793.97;5037281;28;20465;-86
2020/12/17 11:02:31;;;;;;;10.40;5.80;;;;;;;8.61;92.93;96793.97;5037440;28;20471;-86
2020/12/17 11:04:57;;;;;;;10.73;6.20;;;;;;;8.66;92.46;96795.13;5038062;28;20468;-86
2020/12/17 11:07:23;;;;;;;9.03;5.70;;;;;;;8.71;92.83;96801.66;5039262;28;20981;-87
2020/12/17 11:09:50;;;;;;;8.10;5.17;;;;;;;8.79;92.74;96799.78;5040617;28;20553;-89
2020/12/17 11:12:16;;;;;;;8.10;5.83;;;;;;;8.87;92.40;96801.34;5040296;28;20930;-88
2020/12/17 11:14:43;;;;;;;5.37;4.13;;;;;;;8.94;91.29;96794.63;5040360;28;20522;-89
2020/12/17 11:17:10;;;;;;;4.97;4.07;;;;;;;9.06;90.85;96799.28;5040253;28;21049;-89
2020/12/17 11:19:36;;;;;;;6.63;4.10;;;;;;;9.10;90.45;96798.97;5039944;28;20470;-87
2020/12/17 11:22:03;;;;;;;7.00;3.73;;;;;;;9.17;90.73;96790.25;5040267;28;20429;-86
2020/12/17 11:24:30;;;;;;;6.07;3.50;;;;;;;9.23;89.93;96793.56;5041916;28;20424;-89
2020/12/17 11:26:56;;;;;;;6.33;4.60;;;;;;;9.20;90.32;96797.31;5043716;28;20414;-90
2020/12/17 11:29:23;;;;;;;5.97;3.80;;;;;;;9.33;89.54;96794.59;5048892;28;20964;-91